Enter the Airport ICAO Code

Search by Airport or City

Current Weather

LETO | Madrid–Torrejón Airport

Madrid, Community of Madrid, Spain

Last Update 20 Minutes Ago

Clear Sky

Temperature of 03 ºC

Light Winds from North

Temperature

03 ºC

Dew Point Temperature

03 ºC

Relative Humidity

100 %

Wind Direction

North (350º, Without Significant Variations)

Wind Velocity

4 km/h (02 kt)

Gusts

None

Visibility

No Significant Reductions

Sea Level Pressure

1027 hPa (Hectopascals)

Layers of Clouds

None

METAR LETO 270230Z 35002KT CAVOK 03/03 Q1027 NOSIG

Weather Forecast

LETO | Madrid–Torrejón Airport

Madrid, Community of Madrid, Spain

Forecast valid for the next 21 Hours

From now on it is expected:

Clear Sky

Light Winds from North

Maximum Temperature

17 ºC in 12 Hours

Minimum Temperature

02 ºC in 3 Hours

TAF LETO 262300Z 2700/2724 36004KT CAVOK TX17/2715Z TN02/2706Z